createdAt,value
2022-12-23T00:00:14.905Z,99734.69
2022-12-23T00:02:42.798Z,99755.66
2022-12-23T00:05:11.139Z,99743.97
2022-12-23T00:07:40.225Z,99735.28
2022-12-23T00:10:08.853Z,99724.72
2022-12-23T00:12:54.257Z,99724.63
2022-12-23T00:15:22.092Z,99708.31
2022-12-23T00:17:49.823Z,99706.28
2022-12-23T00:20:17.574Z,99705.44
2022-12-23T00:23:04.221Z,99706.75
2022-12-23T00:25:45.315Z,99693.75
2022-12-23T00:28:14.996Z,99702.97
2022-12-23T00:30:47.798Z,99688.00
2022-12-23T00:33:15.855Z,99696.53
2022-12-23T00:35:44.450Z,99691.88
2022-12-23T00:38:13.588Z,99683.44
2022-12-23T00:40:59.186Z,99685.38
2022-12-23T00:43:26.935Z,99690.88
2022-12-23T00:45:55.174Z,99666.84
2022-12-23T00:48:40.336Z,99679.00
2022-12-23T00:51:08.062Z,99687.59
2022-12-23T00:53:37.148Z,99680.09
2022-12-23T00:56:05.045Z,99688.72
2022-12-23T00:58:32.971Z,99688.81
2022-12-23T01:01:18.561Z,99676.75
2022-12-23T01:04:03.653Z,99675.44
2022-12-23T01:06:31.506Z,99688.13
2022-12-23T01:09:00.593Z,99679.06
2022-12-23T01:11:28.328Z,99684.06
2022-12-23T01:13:56.051Z,99680.00
2022-12-23T01:16:23.786Z,99687.63
2022-12-23T01:18:51.539Z,99687.66
2022-12-23T01:21:19.274Z,99693.47
2022-12-23T01:23:46.999Z,99689.53
2022-12-23T01:26:16.133Z,99693.47
2022-12-23T01:28:44.168Z,99689.44
2022-12-23T01:31:11.938Z,99690.09
2022-12-23T01:33:39.739Z,99693.78
2022-12-23T01:36:09.488Z,99704.59
2022-12-23T01:38:37.232Z,99700.09
2022-12-23T01:41:05.096Z,99684.56
2022-12-23T01:43:50.343Z,99699.03
2022-12-23T01:46:18.220Z,99692.06
2022-12-23T01:48:50.619Z,99701.75
2022-12-23T01:51:22.623Z,99693.19
2022-12-23T01:53:53.582Z,99676.72
2022-12-23T01:56:25.489Z,99682.91
2022-12-23T01:58:58.914Z,99691.34
2022-12-23T02:01:44.727Z,99712.38
2022-12-23T02:04:17.056Z,99717.72
2022-12-23T02:07:03.583Z,99720.50
2022-12-23T02:09:32.996Z,99723.44
2022-12-23T02:12:29.809Z,99723.28
2022-12-23T02:15:31.867Z,99738.53
2022-12-23T02:18:12.357Z,99733.91
2022-12-23T02:21:14.364Z,99752.69
2022-12-23T02:24:06.143Z,99747.06
2022-12-23T02:27:09.790Z,99783.00
2022-12-23T02:30:21.903Z,99757.00
2022-12-23T02:33:13.977Z,99735.34
2022-12-23T02:35:47.854Z,99722.81
2022-12-23T02:38:21.533Z,99736.44
2022-12-23T02:40:58.124Z,99770.66
2022-12-23T02:43:33.130Z,99760.31
2022-12-23T02:46:08.255Z,99795.75
2022-12-23T02:48:46.891Z,99807.34
2022-12-23T02:51:16.628Z,99814.25
2022-12-23T02:53:50.064Z,99820.53
2022-12-23T02:56:21.137Z,99819.56
2022-12-23T02:58:54.334Z,99805.22
2022-12-23T03:01:23.174Z,99810.94
2022-12-23T03:03:52.727Z,99822.81
2022-12-23T03:06:24.060Z,99834.22
2022-12-23T03:08:55.583Z,99833.75
2022-12-23T03:11:28.489Z,99846.97
2022-12-23T03:14:15.994Z,99810.09
2022-12-23T03:16:54.621Z,99805.75
2022-12-23T03:19:30.850Z,99818.94
2022-12-23T03:22:10.312Z,99862.66
2022-12-23T03:24:44.472Z,99851.22
2022-12-23T03:27:20.173Z,99814.63
2022-12-23T03:29:55.844Z,99798.53
2022-12-23T03:32:26.786Z,99787.81
2022-12-23T03:35:00.263Z,99792.88
2022-12-23T03:37:31.648Z,99772.00
2022-12-23T03:40:05.297Z,99783.66
2022-12-23T03:42:36.387Z,99811.38
2022-12-23T03:45:37.548Z,99800.13
2022-12-23T03:48:00.728Z,99828.31
2022-12-23T03:50:31.075Z,99834.22
2022-12-23T03:53:03.598Z,99823.94
2022-12-23T03:55:35.588Z,99823.84
2022-12-23T03:58:10.551Z,99823.06
2022-12-23T04:00:44.760Z,99807.88
2022-12-23T04:03:21.812Z,99804.81
2022-12-23T04:05:55.117Z,99808.63
2022-12-23T04:08:28.370Z,99800.56
2022-12-23T04:10:56.165Z,99784.22
2022-12-23T04:13:23.924Z,99794.09
2022-12-23T04:15:51.715Z,99785.13
2022-12-23T04:18:19.597Z,99775.72
2022-12-23T04:20:47.345Z,99773.44
2022-12-23T04:23:16.467Z,99755.28
2022-12-23T04:25:44.197Z,99768.69
2022-12-23T04:28:11.959Z,99774.13
2022-12-23T04:30:39.846Z,99749.88
2022-12-23T04:33:07.599Z,99750.38
2022-12-23T04:35:35.317Z,99768.63
2022-12-23T04:38:03.066Z,99761.72
2022-12-23T04:40:32.397Z,99748.41
2022-12-23T04:43:00.193Z,99745.78
2022-12-23T04:45:27.949Z,99740.63
2022-12-23T04:47:55.682Z,99748.34
2022-12-23T04:50:23.421Z,99744.41
2022-12-23T04:52:51.143Z,99750.47
2022-12-23T04:55:19.019Z,99754.13
2022-12-23T04:57:48.113Z,99749.44
2022-12-23T05:00:16.809Z,99751.06
2022-12-23T05:02:44.628Z,99749.94
2022-12-23T05:05:12.493Z,99757.69
2022-12-23T05:07:40.239Z,99768.69
2022-12-23T05:10:09.622Z,99774.66
2022-12-23T05:12:37.482Z,99763.13
2022-12-23T05:15:08.324Z,99767.44
2022-12-23T05:17:36.383Z,99769.00
2022-12-23T05:20:04.128Z,99774.50
2022-12-23T05:22:31.856Z,99769.13
2022-12-23T05:24:59.588Z,99784.44
2022-12-23T05:27:27.322Z,99787.25
2022-12-23T05:29:55.019Z,99783.50
2022-12-23T05:32:24.128Z,99763.78
2022-12-23T05:34:51.857Z,99768.69
2022-12-23T05:37:21.487Z,99758.50
2022-12-23T05:39:49.184Z,99771.34
2022-12-23T05:42:19.329Z,99743.28
2022-12-23T05:44:47.149Z,99729.91
2022-12-23T05:47:15.052Z,99751.19
2022-12-23T05:49:44.159Z,99757.53
2022-12-23T05:52:20.624Z,99762.88
2022-12-23T05:54:48.323Z,99777.94
2022-12-23T05:57:16.055Z,99784.03
2022-12-23T05:59:43.876Z,99773.53
2022-12-23T06:02:11.824Z,99788.22
2022-12-23T06:04:39.731Z,99781.78
2022-12-23T06:07:09.739Z,99787.22
2022-12-23T06:09:37.458Z,99776.69
2022-12-23T06:12:05.677Z,99776.25
2022-12-23T06:14:33.434Z,99772.84
2022-12-23T06:17:01.262Z,99779.69
2022-12-23T06:19:29.043Z,99799.88
2022-12-23T06:21:57.187Z,99804.31
2022-12-23T06:24:26.316Z,99801.75
2022-12-23T06:26:57.271Z,99795.91
2022-12-23T06:29:25.432Z,99790.03
2022-12-23T06:31:53.288Z,99798.31
2022-12-23T06:34:21.093Z,99805.63
2022-12-23T06:36:48.962Z,99798.00
2022-12-23T06:39:16.723Z,99803.31
2022-12-23T06:41:45.829Z,99793.66
2022-12-23T06:44:13.550Z,99804.41
2022-12-23T06:46:41.256Z,99800.59
2022-12-23T06:49:13.169Z,99802.59
2022-12-23T06:51:41.640Z,99792.16
2022-12-23T06:54:11.271Z,99796.56
2022-12-23T06:56:39.117Z,99795.81
2022-12-23T06:59:08.219Z,99800.94
2022-12-23T07:01:36.033Z,99788.47
2022-12-23T07:04:04.642Z,99769.94
2022-12-23T07:06:32.439Z,99781.56
2022-12-23T07:09:00.191Z,99778.56
2022-12-23T07:11:28.019Z,99783.75
2022-12-23T07:13:55.761Z,99787.50
2022-12-23T07:16:24.850Z,99772.75
2022-12-23T07:18:52.610Z,99774.75
2022-12-23T07:21:28.695Z,99775.00
2022-12-23T07:23:57.574Z,99772.97
2022-12-23T07:26:25.336Z,99776.03
2022-12-23T07:28:53.131Z,99772.31
2022-12-23T07:31:20.986Z,99772.97
2022-12-23T07:33:50.168Z,99777.19
2022-12-23T07:36:18.972Z,99779.72
2022-12-23T07:38:50.375Z,99793.41
2022-12-23T07:41:18.335Z,99793.28
2022-12-23T07:43:46.191Z,99805.59
2022-12-23T07:46:14.015Z,99806.09
2022-12-23T07:48:42.414Z,99804.91
2022-12-23T07:51:11.521Z,99797.97
2022-12-23T07:53:39.261Z,99811.84
2022-12-23T07:56:07.790Z,99802.66
2022-12-23T07:58:35.536Z,99824.31
2022-12-23T08:01:04.877Z,99836.72
2022-12-23T08:03:33.110Z,99830.94
2022-12-23T08:06:02.577Z,99830.41
2022-12-23T08:08:31.800Z,99846.09
2022-12-23T08:11:01.021Z,99841.16
2022-12-23T08:13:29.380Z,99839.59
2022-12-23T08:15:57.852Z,99848.97
2022-12-23T08:18:26.309Z,99858.00
2022-12-23T08:20:58.271Z,99848.06
2022-12-23T08:23:27.121Z,99843.88
2022-12-23T08:26:03.832Z,99833.13
2022-12-23T08:28:32.423Z,99826.91
2022-12-23T08:31:06.144Z,99836.16
2022-12-23T08:33:33.980Z,99836.78
2022-12-23T08:36:01.746Z,99849.91
2022-12-23T08:38:29.800Z,99838.47
2022-12-23T08:40:57.687Z,99842.38
2022-12-23T08:43:33.600Z,99853.41
2022-12-23T08:46:03.589Z,99845.94
2022-12-23T08:48:31.425Z,99846.47
2022-12-23T08:51:03.002Z,99858.31
2022-12-23T08:53:30.697Z,99871.63
2022-12-23T08:56:03.600Z,99896.25
2022-12-23T08:58:33.333Z,99920.28
2022-12-23T09:01:04.415Z,99919.22
2022-12-23T09:03:32.534Z,99902.03
2022-12-23T09:06:00.499Z,99895.28
2022-12-23T09:08:28.215Z,99898.91
2022-12-23T09:10:56.000Z,99886.31
2022-12-23T09:13:32.749Z,99898.66
2022-12-23T09:16:03.974Z,99899.16
2022-12-23T09:18:32.221Z,99908.50
2022-12-23T09:21:00.743Z,99914.09
2022-12-23T09:23:29.253Z,99928.56
2022-12-23T09:25:57.438Z,99923.25
2022-12-23T09:28:26.099Z,99924.75
2022-12-23T09:30:54.331Z,99934.34
2022-12-23T09:33:23.491Z,99921.31
2022-12-23T09:35:51.254Z,99925.25
2022-12-23T09:38:19.005Z,99953.63
2022-12-23T09:40:46.786Z,99978.16
2022-12-23T09:43:25.908Z,99962.78
2022-12-23T09:46:05.391Z,99995.78
2022-12-23T09:48:40.148Z,99992.94
2022-12-23T09:51:10.036Z,99996.03
2022-12-23T09:53:50.667Z,100029.69
2022-12-23T09:56:25.100Z,100016.19
2022-12-23T09:58:59.821Z,100013.84
2022-12-23T10:01:33.808Z,100035.34
2022-12-23T10:04:34.177Z,100020.69
2022-12-23T10:07:26.375Z,100028.94
2022-12-23T10:09:56.342Z,100038.44
2022-12-23T10:12:39.855Z,100036.47
2022-12-23T10:15:22.580Z,100029.69
2022-12-23T10:17:54.248Z,99995.38
2022-12-23T10:20:37.205Z,99982.94
2022-12-23T10:23:07.855Z,99969.13
2022-12-23T10:25:40.314Z,100016.31
2022-12-23T10:28:11.131Z,100017.66
2022-12-23T10:31:10.897Z,100024.25
2022-12-23T10:33:40.811Z,100051.75
2022-12-23T10:36:15.468Z,100064.03
2022-12-23T10:38:55.355Z,100057.06
2022-12-23T10:41:37.807Z,100029.88
2022-12-23T10:44:27.201Z,100026.84
2022-12-23T10:47:08.326Z,100010.84
2022-12-23T10:49:45.656Z,99997.72
2022-12-23T10:52:19.654Z,99998.84
2022-12-23T10:54:48.557Z,99983.59
2022-12-23T10:57:19.340Z,99996.91
2022-12-23T10:59:47.722Z,99990.75
2022-12-23T11:02:33.126Z,99990.19
2022-12-23T11:05:00.991Z,99986.31
2022-12-23T11:07:46.468Z,99980.75
2022-12-23T11:10:18.803Z,99985.06
2022-12-23T11:12:49.206Z,99985.44
2022-12-23T11:15:32.158Z,99992.28
2022-12-23T11:18:06.470Z,99982.13
2022-12-23T11:20:34.776Z,99975.09
2022-12-23T11:23:05.913Z,99973.19
2022-12-23T11:25:37.334Z,99970.78
2022-12-23T11:28:12.227Z,99949.09
2022-12-23T11:30:55.407Z,99935.81
2022-12-23T11:33:27.241Z,99929.28
2022-12-23T11:36:03.767Z,99927.19
2022-12-23T11:38:33.641Z,99947.84
2022-12-23T11:41:01.540Z,99951.25
2022-12-23T11:43:29.891Z,99968.34
2022-12-23T11:46:18.891Z,99994.59
2022-12-23T11:48:52.845Z,100005.53
2022-12-23T11:51:27.788Z,99994.97
2022-12-23T11:54:02.757Z,100038.63
2022-12-23T11:56:37.445Z,100070.13
2022-12-23T11:59:08.832Z,100103.47
2022-12-23T12:01:39.309Z,100143.56
2022-12-23T12:04:09.854Z,100195.50
2022-12-23T12:06:43.952Z,100172.63
2022-12-23T12:09:14.865Z,100191.22
2022-12-23T12:11:49.620Z,100135.66
2022-12-23T12:14:24.360Z,100119.56
2022-12-23T12:16:58.074Z,100096.06
2022-12-23T12:19:31.163Z,100080.25
2022-12-23T12:22:05.736Z,100098.47
2022-12-23T12:24:42.103Z,100132.22
2022-12-23T12:27:12.357Z,100131.59
2022-12-23T12:29:45.723Z,100109.41
2022-12-23T12:32:20.269Z,100094.84
2022-12-23T12:34:54.592Z,100114.69
2022-12-23T12:37:30.709Z,100107.06
2022-12-23T12:40:03.546Z,100142.44
2022-12-23T12:42:36.313Z,100130.84
2022-12-23T12:45:15.446Z,100137.72
2022-12-23T12:47:54.961Z,100108.72
2022-12-23T12:50:28.525Z,100115.97
2022-12-23T12:53:01.527Z,100087.97
2022-12-23T12:55:34.345Z,100080.34
2022-12-23T12:58:03.538Z,100110.31
2022-12-23T13:00:50.090Z,100103.75
2022-12-23T13:03:42.932Z,100108.50
2022-12-23T13:06:21.982Z,100116.47
2022-12-23T13:09:02.304Z,100115.63
2022-12-23T13:11:45.073Z,100110.25
2022-12-23T13:14:24.519Z,100115.91
2022-12-23T13:17:01.974Z,100124.81
2022-12-23T13:19:37.606Z,100140.56
2022-12-23T13:22:10.068Z,100131.53
2022-12-23T13:24:57.923Z,100125.91
2022-12-23T13:27:33.891Z,100142.94
2022-12-23T13:30:07.883Z,100137.88
2022-12-23T13:32:50.573Z,100116.09
2022-12-23T13:35:33.659Z,100123.63
2022-12-23T13:38:13.737Z,100126.56
2022-12-23T13:40:48.772Z,100115.69
2022-12-23T13:43:21.364Z,100107.91
2022-12-23T13:45:51.083Z,100089.13
2022-12-23T13:48:37.717Z,100076.09
2022-12-23T13:51:11.234Z,100072.94
2022-12-23T13:53:56.868Z,100090.88
2022-12-23T13:56:31.753Z,100071.72
2022-12-23T13:59:01.138Z,100076.69
2022-12-23T14:01:37.590Z,100107.34
2022-12-23T14:04:58.296Z,100111.31
2022-12-23T14:07:28.836Z,100124.47
2022-12-23T14:09:58.763Z,100095.66
2022-12-23T14:12:29.160Z,100117.81
2022-12-23T14:15:22.307Z,100148.22
2022-12-23T14:18:02.695Z,100110.41
2022-12-23T14:20:44.439Z,100057.41
2022-12-23T14:23:28.470Z,100046.50
2022-12-23T14:26:20.521Z,100034.72
2022-12-23T14:29:02.753Z,100043.50
2022-12-23T14:31:36.496Z,100030.47
2022-12-23T14:34:07.230Z,100010.75
2022-12-23T14:36:35.119Z,100017.94
2022-12-23T14:39:30.101Z,100036.84
2022-12-23T14:42:05.127Z,100048.41
2022-12-23T14:44:52.349Z,100045.19
2022-12-23T14:47:35.642Z,100024.25
2022-12-23T14:50:39.738Z,99951.84
2022-12-23T14:53:23.167Z,99965.94
2022-12-23T14:55:53.201Z,99958.03
2022-12-23T14:59:05.947Z,100006.69
2022-12-23T15:01:39.821Z,100006.25
2022-12-23T15:04:19.485Z,99993.47
2022-12-23T15:06:51.525Z,99980.91
2022-12-23T15:09:26.420Z,99918.28
2022-12-23T15:11:55.658Z,99941.88
2022-12-23T15:14:33.865Z,99962.25
2022-12-23T15:17:16.660Z,99978.25
2022-12-23T15:19:48.806Z,99972.38
2022-12-23T15:22:23.685Z,99973.38
2022-12-23T15:24:53.231Z,99964.59
2022-12-23T15:27:30.261Z,99977.84
2022-12-23T15:29:59.531Z,99988.09
2022-12-23T15:32:28.957Z,99979.34
2022-12-23T15:35:03.286Z,99978.09
2022-12-23T15:37:32.565Z,99969.53
2022-12-23T15:40:11.548Z,99969.41
2022-12-23T15:42:48.639Z,99967.88
2022-12-23T15:45:32.152Z,99978.34
2022-12-23T15:47:59.978Z,99988.88
2022-12-23T15:50:29.851Z,100011.47
2022-12-23T15:53:06.329Z,100023.03
2022-12-23T15:55:36.560Z,100017.47
2022-12-23T15:58:05.655Z,100015.81
2022-12-23T16:00:39.641Z,100020.13
2022-12-23T16:03:19.954Z,100021.91
2022-12-23T16:05:49.265Z,100034.13
2022-12-23T16:08:29.075Z,100043.38
2022-12-23T16:11:04.410Z,100046.44
2022-12-23T16:13:32.430Z,100041.31
2022-12-23T16:16:30.629Z,100027.28
2022-12-23T16:18:58.469Z,100034.38
2022-12-23T16:21:31.025Z,100022.72
2022-12-23T16:24:00.883Z,100018.97
2022-12-23T16:26:28.939Z,100026.44
2022-12-23T16:29:00.673Z,100047.25
2022-12-23T16:31:28.894Z,100044.16
2022-12-23T16:33:59.114Z,100033.66
2022-12-23T16:36:36.619Z,100013.28
2022-12-23T16:39:16.059Z,100024.81
2022-12-23T16:41:43.888Z,100032.09
2022-12-23T16:44:11.641Z,100035.56
2022-12-23T16:46:43.733Z,100036.81
2022-12-23T16:49:16.858Z,100044.16
2022-12-23T16:51:46.318Z,100038.59
2022-12-23T16:54:16.020Z,100018.25
2022-12-23T16:56:46.453Z,100030.72
2022-12-23T16:59:14.565Z,100043.94
2022-12-23T17:01:45.542Z,100037.84
2022-12-23T17:04:13.733Z,100010.50
2022-12-23T17:06:41.986Z,100008.28
2022-12-23T17:09:12.275Z,99993.00
2022-12-23T17:11:44.498Z,100003.84
2022-12-23T17:14:16.714Z,99992.41
2022-12-23T17:16:45.519Z,100002.03
2022-12-23T17:19:13.688Z,100025.66
2022-12-23T17:21:45.777Z,100015.34
2022-12-23T17:24:20.530Z,99994.41
2022-12-23T17:26:48.456Z,100004.25
2022-12-23T17:29:16.797Z,100015.63
2022-12-23T17:31:45.682Z,100008.38
2022-12-23T17:34:16.768Z,99993.66
2022-12-23T17:36:49.966Z,99984.06
2022-12-23T17:39:20.562Z,100009.91
2022-12-23T17:41:49.041Z,100024.47
2022-12-23T17:44:18.251Z,100008.56
2022-12-23T17:46:47.265Z,99971.72
2022-12-23T17:49:15.162Z,99957.13
2022-12-23T17:51:43.942Z,99945.81
2022-12-23T17:54:23.252Z,99967.47
2022-12-23T17:56:51.130Z,99982.41
2022-12-23T17:59:18.842Z,99990.81
2022-12-23T18:01:46.743Z,99983.31
2022-12-23T18:04:14.568Z,99985.56
2022-12-23T18:06:42.298Z,100002.38
2022-12-23T18:09:10.048Z,99983.84
2022-12-23T18:11:42.588Z,99964.59
2022-12-23T18:14:17.243Z,99955.63
2022-12-23T18:16:45.137Z,99962.91
2022-12-23T18:19:17.602Z,99960.03
2022-12-23T18:21:45.558Z,99955.41
2022-12-23T18:24:13.295Z,99959.69
2022-12-23T18:26:42.408Z,99960.16
2022-12-23T18:29:10.196Z,99937.78
2022-12-23T18:31:51.418Z,99927.38
2022-12-23T18:34:20.825Z,99926.25
2022-12-23T18:36:52.219Z,99928.19
2022-12-23T18:39:20.181Z,99924.13
2022-12-23T18:41:49.350Z,99923.75
2022-12-23T18:44:19.787Z,99923.69
2022-12-23T18:46:47.608Z,99925.38
2022-12-23T18:49:15.524Z,99927.16
2022-12-23T18:51:43.800Z,99943.44
2022-12-23T18:54:14.591Z,99949.09
2022-12-23T18:56:42.741Z,99958.91
2022-12-23T18:59:16.981Z,99990.09
2022-12-23T19:01:44.843Z,99985.81
2022-12-23T19:04:12.726Z,99985.72
2022-12-23T19:06:40.661Z,99967.97
2022-12-23T19:09:09.011Z,99971.56
2022-12-23T19:11:36.736Z,99959.75
2022-12-23T19:14:04.462Z,99942.38
2022-12-23T19:16:33.780Z,99943.19
2022-12-23T19:19:02.085Z,99944.94
2022-12-23T19:21:29.841Z,99953.56
2022-12-23T19:23:58.260Z,99950.00
2022-12-23T19:26:26.166Z,99955.63
2022-12-23T19:28:53.952Z,99957.56
2022-12-23T19:31:23.148Z,99964.09
2022-12-23T19:33:52.521Z,99968.25
2022-12-23T19:36:23.779Z,99955.72
2022-12-23T19:38:51.988Z,99966.25
2022-12-23T19:41:19.985Z,99969.97
2022-12-23T19:43:48.316Z,99972.53
2022-12-23T19:46:17.273Z,99979.41
2022-12-23T19:48:45.079Z,99978.28
2022-12-23T19:51:15.509Z,99988.22
2022-12-23T19:53:44.734Z,99977.19
2022-12-23T19:56:13.945Z,99984.09
2022-12-23T19:58:43.885Z,99983.00
2022-12-23T20:01:14.202Z,99997.13
2022-12-23T20:03:45.355Z,99999.34
2022-12-23T20:06:18.062Z,99988.34
2022-12-23T20:08:45.818Z,99993.31
2022-12-23T20:11:15.735Z,99992.63
2022-12-23T20:13:43.682Z,100001.28
2022-12-23T20:16:12.302Z,99998.59
2022-12-23T20:18:40.704Z,99996.59
2022-12-23T20:21:08.468Z,99990.81
2022-12-23T20:23:37.615Z,99985.19
2022-12-23T20:26:05.818Z,99984.22
2022-12-23T20:28:34.102Z,99989.06
2022-12-23T20:31:07.483Z,99989.78
2022-12-23T20:33:35.709Z,99996.28
2022-12-23T20:36:03.809Z,99999.28
2022-12-23T20:38:31.606Z,99998.53
2022-12-23T20:41:00.697Z,99994.81
2022-12-23T20:43:28.458Z,99987.78
2022-12-23T20:45:56.193Z,99986.13
2022-12-23T20:48:28.100Z,99997.81
2022-12-23T20:51:05.375Z,100003.03
2022-12-23T20:53:33.284Z,99995.81
2022-12-23T20:56:02.581Z,99994.50
2022-12-23T20:58:47.744Z,99991.63
2022-12-23T21:01:15.996Z,100004.28
2022-12-23T21:03:43.816Z,100007.94
2022-12-23T21:06:11.625Z,100020.31
2022-12-23T21:08:40.219Z,100006.03
2022-12-23T21:11:09.363Z,100014.59
2022-12-23T21:13:40.249Z,100008.56
2022-12-23T21:16:10.217Z,100011.75
2022-12-23T21:18:41.010Z,100015.22
2022-12-23T21:21:08.885Z,100005.22
2022-12-23T21:23:41.682Z,100001.34
2022-12-23T21:26:13.654Z,100007.03
2022-12-23T21:28:42.672Z,100008.09
2022-12-23T21:31:11.335Z,99999.66
2022-12-23T21:33:40.630Z,100018.72
2022-12-23T21:36:12.663Z,100014.94
2022-12-23T21:38:44.956Z,100003.84
2022-12-23T21:41:16.176Z,100010.56
2022-12-23T21:43:44.408Z,100016.03
2022-12-23T21:46:14.267Z,100019.81
2022-12-23T21:48:42.695Z,100029.06
2022-12-23T21:51:14.595Z,100049.38
2022-12-23T21:53:43.554Z,100057.00
2022-12-23T21:56:15.202Z,100046.63
2022-12-23T21:58:43.799Z,100031.50
2022-12-23T22:01:14.524Z,100051.41
2022-12-23T22:03:43.214Z,100050.22
2022-12-23T22:06:13.590Z,100052.03
2022-12-23T22:08:41.948Z,100049.66
2022-12-23T22:11:11.699Z,100053.19
2022-12-23T22:13:41.886Z,100061.88
2022-12-23T22:16:10.844Z,100073.34
2022-12-23T22:18:39.704Z,100081.19
2022-12-23T22:21:09.030Z,100058.44
2022-12-23T22:23:37.373Z,100055.59
2022-12-23T22:26:06.468Z,100045.56
2022-12-23T22:28:36.148Z,100032.72
2022-12-23T22:31:07.117Z,100039.50
2022-12-23T22:33:35.603Z,100037.22
2022-12-23T22:36:03.412Z,100038.72
2022-12-23T22:38:31.137Z,100077.97
2022-12-23T22:40:58.895Z,100081.66
2022-12-23T22:43:26.623Z,100080.94
2022-12-23T22:45:57.877Z,100102.72
2022-12-23T22:48:28.973Z,100092.16
2022-12-23T22:51:02.666Z,100098.59
2022-12-23T22:53:31.397Z,100102.53
2022-12-23T22:55:59.790Z,100119.31
2022-12-23T22:58:27.613Z,100115.97
2022-12-23T23:00:55.724Z,100121.94
2022-12-23T23:03:23.473Z,100113.72
2022-12-23T23:06:00.460Z,100115.41
2022-12-23T23:08:28.489Z,100122.19
2022-12-23T23:10:58.256Z,100127.28
2022-12-23T23:13:26.723Z,100118.47
2022-12-23T23:15:55.988Z,100126.97
2022-12-23T23:18:24.608Z,100110.75
2022-12-23T23:20:52.944Z,100094.25
2022-12-23T23:23:22.680Z,100097.75
2022-12-23T23:25:50.575Z,100107.66
2022-12-23T23:28:18.842Z,100114.66
2022-12-23T23:30:46.605Z,100120.75
2022-12-23T23:33:14.519Z,100123.72
2022-12-23T23:35:42.237Z,100136.84
2022-12-23T23:38:10.588Z,100145.28
2022-12-23T23:40:39.703Z,100145.41
2022-12-23T23:43:07.430Z,100141.31
2022-12-23T23:45:35.196Z,100096.50
2022-12-23T23:48:03.010Z,100075.34
2022-12-23T23:50:31.241Z,100074.81
2022-12-23T23:52:59.062Z,100080.47
2022-12-23T23:55:26.804Z,100098.81
2022-12-23T23:57:55.882Z,100123.59
